Time;durP1;ratioP1;P1;durP2;ratioP2;P2;SDS_P1;SDS_P2;PMS_P1;PMS_P2;Temp;Humidity;BMP_temperature;BMP_pressure;BME280_temperature;BME280_humidity;BME280_pressure;Samples;Min_cycle;Max_cycle;Signal;HPM_P1;HPM_P2
2023/09/20 00:00:25;;;;;;;5.95;5.45;;;;;;;-142.91;100.00;56616.03;5032419;28;20285;-60
2023/09/20 00:02:53;;;;;;;5.78;4.78;;;;;;;-142.91;100.00;56616.03;5032422;28;20194;-62
2023/09/20 00:05:21;;;;;;;6.15;5.38;;;;;;;18.42;nan;95261.50;5033446;28;20199;-62
2023/09/20 00:07:48;;;;;;;5.15;4.80;;;;;;;18.43;nan;95258.03;5035954;28;20265;-62
2023/09/20 00:10:15;;;;;;;6.20;5.70;;;;;;;18.46;nan;95262.97;5031608;28;20639;-61
2023/09/20 00:12:44;;;;;;;6.40;5.65;;;;;;;18.52;nan;95259.22;5032041;28;20698;-61
2023/09/20 00:15:11;;;;;;;6.82;5.78;;;;;;;18.57;nan;95259.72;5037212;28;20214;-63
2023/09/20 00:17:39;;;;;;;6.28;5.85;;;;;;;18.61;nan;95266.38;5033868;28;20218;-58
2023/09/20 00:20:12;;;;;;;6.28;5.78;;;;;;;18.54;nan;95267.66;5028691;28;20204;-59
2023/09/20 00:22:41;;;;;;;6.70;6.07;;;;;;;18.50;nan;95258.47;5033637;28;20196;-62
2023/09/20 00:25:12;;;;;;;8.60;6.40;;;;;;;18.55;nan;95266.75;5036241;28;20195;-59
2023/09/20 00:27:39;;;;;;;6.53;6.03;;;;;;;18.67;nan;95260.84;5035088;28;20325;-63
2023/09/20 00:30:10;;;;;;;6.68;6.05;;;;;;;18.54;nan;95268.50;5030218;28;20689;-61
2023/09/20 00:32:57;;;;;;;7.88;7.28;;;;;;;18.52;nan;95270.34;5033139;28;20286;-61
2023/09/20 00:35:23;;;;;;;7.15;6.55;;;;;;;18.53;nan;95276.31;5032373;28;20771;-62
2023/09/20 00:37:50;;;;;;;7.38;6.75;;;;;;;18.53;nan;95263.44;5033639;28;20263;-61
2023/09/20 00:40:18;;;;;;;8.60;7.78;;;;;;;18.47;nan;95268.97;5031373;28;20294;-60
2023/09/20 00:42:47;;;;;;;8.75;8.02;;;;;;;18.33;nan;95257.75;5030540;28;20212;-62
2023/09/20 00:45:15;;;;;;;8.23;7.53;;;;;;;18.34;nan;95254.25;5029901;28;20672;-60
2023/09/20 00:47:44;;;;;;;7.65;6.35;;;;;;;18.50;nan;95259.31;5037419;28;20200;-58
2023/09/20 00:50:13;;;;;;;8.20;7.25;;;;;;;18.44;nan;95253.69;5031603;28;20243;-63
2023/09/20 00:52:42;;;;;;;8.82;7.97;;;;;;;18.44;nan;95254.53;5031873;28;20281;-62
2023/09/20 00:55:13;;;;;;;8.63;7.80;;;;;;;18.36;nan;95252.41;5033917;28;20204;-62
2023/09/20 00:57:39;;;;;;;7.07;6.40;;;;;;;18.47;nan;95253.50;5032547;28;20226;-61
2023/09/20 01:00:19;;;;;;;7.53;7.03;;;;;;;18.51;nan;95257.56;5030483;28;20200;-61
2023/09/20 01:02:46;;;;;;;8.30;7.60;;;;;;;25.85;100.00;56616.03;5032643;28;20337;-61
2023/09/20 01:05:14;;;;;;;7.85;7.20;;;;;;;-142.91;100.00;56616.03;5037789;28;20640;-63
2023/09/20 01:07:42;;;;;;;8.13;7.43;;;;;;;-142.91;100.00;56616.03;5033436;28;20326;-62
2023/09/20 01:10:09;;;;;;;8.55;7.68;;;;;;;-142.91;100.00;56616.03;5032118;28;20206;-61
2023/09/20 01:12:37;;;;;;;9.05;8.20;;;;;;;17.97;nan;95259.97;5035164;28;20207;-62
2023/09/20 01:15:04;;;;;;;9.05;7.45;;;;;;;18.22;nan;95255.00;5034326;28;20260;-62
2023/09/20 01:17:31;;;;;;;14.73;13.13;;;;;;;18.28;nan;95258.97;5027756;28;20242;-62
2023/09/20 01:19:57;;;;;;;8.88;8.07;;;;;;;18.32;nan;95250.94;5033518;28;20202;-62
2023/09/20 01:22:26;;;;;;;9.10;8.35;;;;;;;18.31;nan;95244.13;5031774;28;20222;-62
2023/09/20 01:24:55;;;;;;;7.88;7.20;;;;;;;18.30;nan;95247.66;5035720;28;20210;-58
2023/09/20 01:27:22;;;;;;;9.40;8.48;;;;;;;18.33;nan;95247.44;5030993;28;20222;-61
2023/09/20 01:29:49;;;;;;;8.95;8.07;;;;;;;18.12;nan;95258.22;5034698;28;20203;-62
2023/09/20 01:32:16;;;;;;;8.82;8.18;;;;;;;18.17;nan;95249.31;5031093;28;20200;-63
2023/09/20 01:34:42;;;;;;;9.88;8.43;;;;;;;18.04;nan;95250.16;5030734;28;20261;-60
2023/09/20 01:37:09;;;;;;;10.18;8.63;;;;;;;18.01;nan;95249.41;5033608;28;20234;-61
2023/09/20 01:39:37;;;;;;;10.85;9.80;;;;;;;18.11;nan;95266.84;5037346;28;20202;-61
2023/09/20 01:42:04;;;;;;;11.63;9.45;;;;;;;18.01;nan;95266.59;5031714;28;20750;-62
2023/09/20 01:44:31;;;;;;;11.45;10.35;;;;;;;17.96;nan;95263.44;5034054;28;20215;-62
2023/09/20 01:47:03;;;;;;;10.95;9.98;;;;;;;18.03;nan;95269.91;5029819;28;20195;-60
2023/09/20 01:49:34;;;;;;;14.93;10.85;;;;;;;17.92;nan;95251.69;5031997;28;20661;-62
2023/09/20 01:52:01;;;;;;;14.13;11.20;;;;;;;17.99;nan;95248.66;5031436;28;20309;-61
2023/09/20 01:54:28;;;;;;;10.95;10.00;;;;;;;17.99;nan;95242.69;5034867;28;20203;-61
2023/09/20 01:56:56;;;;;;;11.23;10.25;;;;;;;18.07;nan;95249.94;5027512;28;20248;-62
2023/09/20 01:59:23;;;;;;;11.43;10.50;;;;;;;18.05;nan;95247.50;5029489;28;20304;-61
2023/09/20 02:01:50;;;;;;;13.05;11.85;;;;;;;18.18;nan;95253.53;5030643;28;20203;-61
2023/09/20 02:04:16;;;;;;;13.75;12.50;;;;;;;18.24;nan;95253.16;5028745;28;20203;-61
2023/09/20 02:06:43;;;;;;;14.52;12.50;;;;;;;18.18;nan;95243.25;5027927;28;20261;-62
2023/09/20 02:09:12;;;;;;;13.35;11.75;;;;;;;18.09;nan;95251.50;5035741;28;20195;-63
2023/09/20 02:11:38;;;;;;;14.43;12.90;;;;;;;18.15;nan;95248.56;5026065;28;20303;-60
2023/09/20 02:14:06;;;;;;;14.85;12.82;;;;;;;18.18;nan;95253.53;5031206;28;20196;-63
2023/09/20 02:16:33;;;;;;;16.85;13.43;;;;;;;18.13;nan;95234.97;5031385;28;20207;-62
2023/09/20 02:19:00;;;;;;;14.90;12.18;;;;;;;18.29;nan;95246.00;5030639;28;20293;-62
2023/09/20 02:21:27;;;;;;;14.50;13.07;;;;;;;18.25;nan;95252.25;5027697;28;20266;-63
2023/09/20 02:23:56;;;;;;;18.13;13.32;;;;;;;18.26;nan;95250.50;5032673;28;20734;-60
2023/09/20 02:26:23;;;;;;;17.08;13.93;;;;;;;18.24;nan;95253.16;5031097;28;20684;-62
2023/09/20 02:28:51;;;;;;;15.57;12.52;;;;;;;18.22;nan;95261.91;5032454;28;20780;-63
2023/09/20 02:31:19;;;;;;;13.95;12.55;;;;;;;18.15;nan;95251.16;5034233;28;20234;-61
2023/09/20 02:33:45;;;;;;;15.65;13.48;;;;;;;18.27;nan;95263.28;5039242;28;20693;-62
2023/09/20 02:36:12;;;;;;;19.42;14.10;;;;;;;18.32;nan;95270.69;5038434;28;20307;-63
2023/09/20 02:38:39;;;;;;;20.83;14.95;;;;;;;18.38;nan;95264.34;5035632;28;20691;-62
2023/09/20 02:41:07;;;;;;;21.85;14.23;;;;;;;18.30;nan;95263.09;5035091;28;20204;-60
2023/09/20 02:43:34;;;;;;;18.90;14.43;;;;;;;18.32;nan;95270.69;5040775;28;20207;-63
2023/09/20 02:46:05;;;;;;;16.95;13.68;;;;;;;18.31;nan;95263.94;5037377;28;20195;-61
2023/09/20 02:48:34;;;;;;;28.15;15.30;;;;;;;18.37;nan;95263.53;5036290;28;20694;-62
2023/09/20 02:51:02;;;;;;;21.15;14.00;;;;;;;18.45;nan;95268.22;5033181;28;20303;-62
2023/09/20 02:53:29;;;;;;;18.08;14.32;;;;;;;18.52;nan;95266.94;5033091;28;20210;-62
2023/09/20 02:55:55;;;;;;;17.85;14.13;;;;;;;18.41;nan;95272.72;5032929;28;20204;-62
2023/09/20 02:58:22;;;;;;;22.42;14.63;;;;;;;18.49;nan;95272.25;5035392;28;20699;-61
2023/09/20 03:00:50;;;;;;;19.83;13.68;;;;;;;18.48;nan;95275.75;5031317;28;20787;-60
2023/09/20 03:03:18;;;;;;;16.80;12.93;;;;;;;18.48;nan;95273.19;5041090;28;20195;-61
2023/09/20 03:05:45;;;;;;;20.63;14.10;;;;;;;18.73;nan;95269.97;5039116;28;20223;-63
2023/09/20 03:08:13;;;;;;;19.52;13.30;;;;;;;18.62;nan;95262.88;5032167;28;20268;-61
2023/09/20 03:10:41;;;;;;;16.80;12.88;;;;;;;18.51;nan;95268.69;5036505;28;20269;-61
2023/09/20 03:13:10;;;;;;;14.55;12.80;;;;;;;18.53;nan;95268.59;5033138;28;20211;-61
2023/09/20 03:15:43;;;;;;;15.98;13.32;;;;;;;18.45;nan;95270.78;5032742;28;20253;-61
2023/09/20 03:18:11;;;;;;;14.02;12.48;;;;;;;18.44;nan;95271.72;5033946;28;20259;-62
2023/09/20 03:20:38;;;;;;;14.70;13.15;;;;;;;18.47;nan;95264.63;5034964;28;20655;-62
2023/09/20 03:23:07;;;;;;;16.48;14.07;;;;;;;18.42;nan;95265.81;5034542;28;20210;-62
2023/09/20 03:25:36;;;;;;;19.48;13.43;;;;;;;18.60;nan;95255.25;5033887;28;20204;-62
2023/09/20 03:28:03;;;;;;;16.58;13.60;;;;;;;18.60;nan;95265.56;5036794;28;20271;-62
2023/09/20 03:30:31;;;;;;;21.88;14.30;;;;;;;18.65;nan;95262.69;5033158;28;20219;-63
2023/09/20 03:32:58;;;;;;;16.95;14.82;;;;;;;18.73;nan;95270.78;5036772;28;20681;-62
2023/09/20 03:35:27;;;;;;;18.27;15.18;;;;;;;18.70;nan;95270.97;5030096;28;20231;-62
2023/09/20 03:37:55;;;;;;;18.30;15.15;;;;;;;18.74;nan;95266.47;5034031;28;20227;-62
2023/09/20 03:40:23;;;;;;;25.60;14.98;;;;;;;18.68;nan;95262.50;5034345;28;20273;-62
2023/09/20 03:42:52;;;;;;;18.10;16.30;;;;;;;18.71;nan;95272.63;5032741;28;20207;-63
2023/09/20 03:45:19;;;;;;;19.45;15.18;;;;;;;18.76;nan;95264.63;5044287;28;20218;-63
2023/09/20 03:47:47;;;;;;;18.55;14.40;;;;;;;18.77;nan;95266.28;5031407;28;20571;-62
2023/09/20 03:50:14;;;;;;;17.10;12.82;;;;;;;18.75;nan;95262.97;5034650;28;20728;-61
2023/09/20 03:52:41;;;;;;;17.10;13.90;;;;;;;18.71;nan;95262.31;5034629;28;20203;-62
2023/09/20 03:55:08;;;;;;;16.15;14.45;;;;;;;18.77;nan;95261.94;5031649;28;20677;-61
2023/09/20 03:57:37;;;;;;;17.52;15.35;;;;;;;18.75;nan;95273.25;5034690;28;20203;-59
2023/09/20 04:00:06;;;;;;;19.80;16.67;;;;;;;18.76;nan;95268.03;5037248;28;20238;-62
2023/09/20 04:02:34;;;;;;;20.30;17.65;;;;;;;18.74;nan;95271.59;5030887;28;20211;-63
2023/09/20 04:05:09;;;;;;;25.60;17.63;;;;;;;18.66;nan;95270.31;5033886;28;20219;-63
2023/09/20 04:07:36;;;;;;;24.30;21.38;;;;;;;18.81;nan;95272.84;5033506;28;20202;-63
2023/09/20 04:10:03;;;;;;;26.55;22.08;;;;;;;18.84;nan;95268.34;5036177;28;20196;-61
2023/09/20 04:12:30;;;;;;;27.17;18.98;;;;;;;18.78;nan;95266.19;5033955;28;20211;-63
2023/09/20 04:14:58;;;;;;;17.17;15.30;;;;;;;18.95;nan;95265.94;5031620;28;20211;-62
2023/09/20 04:17:25;;;;;;;18.42;16.45;;;;;;;18.83;nan;95258.97;5031091;28;20284;-60
2023/09/20 04:19:52;;;;;;;18.77;15.57;;;;;;;18.82;nan;95265.03;5033525;28;20227;-62
2023/09/20 04:22:19;;;;;;;24.58;17.35;;;;;;;18.87;nan;95260.44;5034524;28;20207;-62
2023/09/20 04:24:45;;;;;;;24.33;19.00;;;;;;;18.93;nan;95262.63;5032642;28;20208;-62
2023/09/20 04:27:12;;;;;;;22.73;19.05;;;;;;;18.95;nan;95265.94;5037811;28;20340;-62
2023/09/20 04:29:39;;;;;;;22.17;18.10;;;;;;;18.92;nan;95265.31;5032975;28;20539;-62
2023/09/20 04:32:08;;;;;;;22.30;18.52;;;;;;;18.90;nan;95272.28;5031332;28;20224;-59
2023/09/20 04:34:34;;;;;;;21.33;18.10;;;;;;;19.08;nan;95272.88;5033989;28;20250;-62
2023/09/20 04:37:01;;;;;;;22.58;17.42;;;;;;;19.01;nan;95275.84;5032566;28;20199;-63
2023/09/20 04:39:28;;;;;;;22.48;17.65;;;;;;;19.02;nan;95272.38;5033676;28;20246;-62
2023/09/20 04:41:55;;;;;;;29.33;24.83;;;;;;;19.17;nan;95280.03;5034272;28;20262;-62
2023/09/20 04:44:23;;;;;;;53.08;39.80;;;;;;;19.04;nan;95285.16;5031948;28;20200;-63
2023/09/20 04:46:49;;;;;;;35.05;28.27;;;;;;;19.00;nan;95278.53;5031197;28;20202;-62
2023/09/20 04:49:19;;;;;;;23.40;19.33;;;;;;;19.10;nan;95287.31;5030053;28;20195;-62
2023/09/20 04:51:46;;;;;;;22.45;19.00;;;;;;;19.16;nan;95280.94;5030582;28;20214;-62
2023/09/20 04:54:13;;;;;;;22.55;19.27;;;;;;;19.28;nan;95287.91;5029952;28;20280;-63
2023/09/20 04:56:47;;;;;;;22.20;19.15;;;;;;;19.35;nan;95286.56;5035096;28;20626;-61
2023/09/20 04:59:14;;;;;;;30.75;19.73;;;;;;;19.53;nan;95288.00;5042011;28;20218;-63
2023/09/20 05:01:42;;;;;;;21.98;18.35;;;;;;;19.49;nan;95291.69;5036286;28;20250;-64
2023/09/20 05:04:13;;;;;;;24.13;19.25;;;;;;;19.30;nan;95292.00;5034647;28;20199;-62
2023/09/20 05:06:41;;;;;;;21.80;18.58;;;;;;;19.25;nan;95288.09;5030571;28;20204;-62
2023/09/20 05:09:08;;;;;;;21.88;18.70;;;;;;;19.25;nan;95290.69;5032362;28;20202;-63
2023/09/20 05:11:35;;;;;;;22.33;18.48;;;;;;;19.38;nan;95288.94;5029141;28;20200;-65
2023/09/20 05:14:02;;;;;;;22.67;20.13;;;;;;;19.46;nan;95291.88;5030216;28;20227;-63
2023/09/20 05:16:29;;;;;;;22.15;19.85;;;;;;;19.52;nan;95301.81;5030745;28;20195;-61
2023/09/20 05:18:55;;;;;;;23.17;18.58;;;;;;;19.50;nan;95303.66;5034355;28;20254;-63
2023/09/20 05:21:22;;;;;;;22.15;19.42;;;;;;;19.60;nan;95304.72;5030836;28;20227;-60
2023/09/20 05:23:50;;;;;;;20.48;18.33;;;;;;;19.69;nan;95304.13;5032050;28;20391;-64
2023/09/20 05:26:18;;;;;;;19.35;17.38;;;;;;;19.65;nan;95305.25;5028289;28;20308;-61
2023/09/20 05:28:46;;;;;;;20.95;17.80;;;;;;;19.60;nan;95309.88;5030870;28;20959;-62
2023/09/20 05:31:14;;;;;;;18.83;15.15;;;;;;;19.73;nan;95311.66;5029618;28;20235;-60
2023/09/20 05:33:40;;;;;;;18.60;15.20;;;;;;;19.81;nan;95311.97;5033683;28;20289;-62
2023/09/20 05:36:07;;;;;;;24.00;14.32;;;;;;;19.84;nan;95309.19;5034769;28;20227;-61
2023/09/20 05:38:34;;;;;;;16.08;14.48;;;;;;;19.90;nan;95326.84;5034156;28;20208;-63
2023/09/20 05:41:02;;;;;;;20.13;15.25;;;;;;;19.79;nan;95324.16;5033766;28;20235;-63
2023/09/20 05:43:29;;;;;;;18.88;14.85;;;;;;;19.76;nan;95334.66;5029025;28;20377;-60
2023/09/20 05:45:59;;;;;;;21.80;16.02;;;;;;;20.03;nan;95322.53;5034481;28;20297;-62
2023/09/20 05:48:26;;;;;;;21.30;15.93;;;;;;;19.83;nan;95330.75;5028896;28;20246;-61
2023/09/20 05:50:54;;;;;;;22.73;15.55;;;;;;;19.77;nan;95331.16;5034259;28;20222;-62
2023/09/20 05:53:21;;;;;;;27.83;16.73;;;;;;;19.64;nan;95331.13;5031027;28;20204;-63
2023/09/20 05:55:48;;;;;;;25.33;17.92;;;;;;;19.61;nan;95336.47;5028369;28;20218;-63
2023/09/20 05:58:17;;;;;;;23.17;18.92;;;;;;;19.55;nan;95336.91;5031214;28;20672;-64
2023/09/20 06:00:44;;;;;;;29.05;20.27;;;;;;;19.46;nan;95337.44;5029086;28;20231;-62
2023/09/20 06:03:12;;;;;;;26.85;18.13;;;;;;;19.58;nan;95342.66;5028576;28;20207;-62
2023/09/20 06:05:39;;;;;;;25.98;18.90;;;;;;;19.70;nan;95341.06;5028653;28;20203;-62
2023/09/20 06:08:07;;;;;;;29.55;20.90;;;;;;;19.67;nan;95336.91;5033923;28;20293;-60
2023/09/20 06:10:34;;;;;;;34.55;22.45;;;;;;;19.81;nan;95338.56;5031297;28;20200;-62
2023/09/20 06:13:01;;;;;;;37.58;22.88;;;;;;;19.81;nan;95333.41;5033342;28;20214;-62
2023/09/20 06:15:29;;;;;;;29.42;21.58;;;;;;;19.82;nan;95334.25;5031089;28;20211;-63
2023/09/20 06:17:55;;;;;;;33.72;20.58;;;;;;;19.99;nan;95334.00;5030203;28;20199;-61
2023/09/20 06:20:24;;;;;;;32.47;22.30;;;;;;;19.89;nan;95335.50;5030074;28;20708;-64
2023/09/20 06:22:51;;;;;;;35.70;22.58;;;;;;;19.82;nan;95334.25;5036560;28;20199;-62
2023/09/20 06:25:19;;;;;;;28.20;21.25;;;;;;;19.70;nan;95339.28;5033257;28;20227;-59
2023/09/20 06:27:46;;;;;;;38.85;23.10;;;;;;;19.91;nan;95343.97;5027115;28;20243;-63
2023/09/20 06:30:14;;;;;;;33.45;22.25;;;;;;;20.06;nan;95342.94;5031106;28;20222;-61
2023/09/20 06:32:43;;;;;;;24.80;19.40;;;;;;;20.25;nan;95351.13;5028895;28;20222;-60
2023/09/20 06:35:10;;;;;;;23.90;18.55;;;;;;;20.24;nan;95352.06;5029415;28;20229;-63
2023/09/20 06:37:38;;;;;;;31.05;20.60;;;;;;;20.22;nan;95338.44;5031251;28;20494;-62
2023/09/20 06:40:16;;;;;;;30.10;21.35;;;;;;;20.23;nan;95349.59;5030476;28;20233;-63
2023/09/20 06:42:43;;;;;;;25.67;20.85;;;;;;;20.15;nan;95352.66;5027586;28;20207;-63
2023/09/20 06:45:12;;;;;;;27.75;21.50;;;;;;;20.14;nan;95345.84;5029713;28;20233;-65
2023/09/20 06:47:39;;;;;;;25.98;19.77;;;;;;;20.57;nan;95358.47;5031258;28;20206;-61
2023/09/20 06:50:08;;;;;;;25.40;20.08;;;;;;;20.71;nan;95359.19;5031070;28;20199;-64
2023/09/20 06:52:35;;;;;;;25.48;20.60;;;;;;;20.93;nan;95355.97;5032303;28;20207;-64
2023/09/20 06:55:03;;;;;;;24.48;21.48;;;;;;;21.09;nan;95366.03;5033923;28;20214;-64
2023/09/20 06:57:30;;;;;;;32.63;22.33;;;;;;;21.11;nan;95364.19;5027382;28;20739;-62
2023/09/20 06:59:57;;;;;;;29.30;20.58;;;;;;;21.04;nan;95368.94;5029225;28;20230;-61
2023/09/20 07:02:25;;;;;;;27.45;21.83;;;;;;;20.59;nan;95374.69;5032146;28;20578;-63
2023/09/20 07:04:55;;;;;;;32.92;22.42;;;;;;;20.49;nan;95373.69;5030197;28;20203;-63
2023/09/20 07:07:25;;;;;;;24.75;18.67;;;;;;;20.84;nan;95377.25;5034959;28;20309;-63
2023/09/20 07:09:51;;;;;;;31.88;19.50;;;;;;;21.12;nan;95372.75;5032342;28;20249;-62
2023/09/20 07:12:18;;;;;;;27.83;22.40;;;;;;;21.54;nan;95367.16;5036403;28;20254;-64
2023/09/20 07:14:45;;;;;;;24.00;19.95;;;;;;;21.73;nan;95366.66;5033093;28;20210;-61
2023/09/20 07:17:11;;;;;;;27.85;19.98;;;;;;;21.68;nan;95368.75;5032851;28;20697;-61
2023/09/20 07:19:38;;;;;;;29.88;20.20;;;;;;;21.57;nan;95374.69;5036900;28;20617;-61
2023/09/20 07:22:05;;;;;;;26.90;19.27;;;;;;;21.53;nan;95375.84;5035226;28;20208;-63
2023/09/20 07:24:35;;;;;;;31.08;18.85;;;;;;;21.81;nan;95379.03;5032989;28;20673;-63
2023/09/20 07:27:03;;;;;;;27.33;18.77;;;;;;;21.98;nan;95383.81;5037163;28;20245;-63
2023/09/20 07:29:30;;;;;;;22.70;17.90;;;;;;;22.25;nan;95388.75;5034828;28;20673;-62
2023/09/20 07:32:00;;;;;;;26.63;19.50;;;;;;;22.38;nan;95385.13;5035954;28;20207;-62
2023/09/20 07:34:26;;;;;;;23.58;18.25;;;;;;;22.74;nan;95391.06;5038209;28;20585;-59
2023/09/20 07:36:53;;;;;;;20.40;18.20;;;;;;;23.17;nan;95392.94;5033793;28;20214;-60
2023/09/20 07:39:21;;;;;;;22.70;17.90;;;;;;;23.74;nan;95390.97;5029627;28;20218;-62
2023/09/20 07:41:50;;;;;;;23.52;18.75;;;;;;;25.00;nan;95389.22;5034516;28;20264;-58
2023/09/20 07:44:23;;;;;;;22.98;18.20;;;;;;;25.79;nan;95382.31;5031740;28;20199;-61
2023/09/20 07:46:52;;;;;;;20.05;17.13;;;;;;;26.35;nan;95377.25;5030732;28;20805;-61
2023/09/20 07:49:19;;;;;;;30.55;20.55;;;;;;;25.99;nan;95380.53;5031066;28;20666;-62
2023/09/20 07:51:46;;;;;;;26.48;21.15;;;;;;;25.81;nan;95377.78;5029528;28;20317;-61
2023/09/20 07:54:14;;;;;;;21.70;17.92;;;;;;;25.59;nan;95380.63;5029655;28;20953;-62
2023/09/20 07:56:43;;;;;;;22.95;17.45;;;;;;;25.63;nan;95382.84;5033379;28;20589;-62
2023/09/20 07:59:13;;;;;;;23.20;18.05;;;;;;;25.95;nan;95374.78;5028440;28;20290;-60
2023/09/20 08:01:41;;;;;;;20.10;14.98;;;;;;;-142.91;100.00;56616.03;5033134;28;20285;-63
2023/09/20 08:04:10;;;;;;;17.25;15.50;;;;;;;-142.91;100.00;56616.03;5034886;28;20265;-60
2023/09/20 08:06:40;;;;;;;19.02;15.48;;;;;;;-142.91;100.00;56616.03;5034291;28;20208;-63
2023/09/20 08:09:07;;;;;;;18.83;15.32;;;;;;;-142.91;100.00;56616.03;5032777;28;20295;-63
2023/09/20 08:11:34;;;;;;;20.48;16.35;;;;;;;-142.91;100.00;56616.03;5036581;28;20223;-63
2023/09/20 08:14:03;;;;;;;17.70;15.82;;;;;;;-142.91;100.00;56616.03;5033972;28;20212;-61
2023/09/20 08:16:33;;;;;;;20.88;16.38;;;;;;;-142.91;100.00;56616.03;5030896;28;20223;-61
2023/09/20 08:19:20;;;;;;;18.75;14.98;;;;;;;-142.91;100.00;56616.03;5032734;28;20269;-64
2023/09/20 08:21:48;;;;;;;15.95;14.35;;;;;;;-142.91;100.00;56616.03;5030257;28;20653;-62
2023/09/20 09:00:21;;;;;;;12.68;11.50;;;;;;;-142.91;100.00;56616.03;5028501;28;20225;-62
2023/09/20 09:02:51;;;;;;;14.00;11.13;;;;;;;-142.91;100.00;56616.03;5030393;28;20306;-62
2023/09/20 09:05:21;;;;;;;15.68;13.32;;;;;;;-142.91;100.00;56616.03;5028453;28;20208;-64
2023/09/20 09:07:48;;;;;;;11.88;10.70;;;;;;;-142.91;100.00;56616.03;5031713;28;20696;-61
2023/09/20 09:10:15;;;;;;;12.90;9.95;;;;;;;-142.91;100.00;56616.03;5027542;28;20202;-64
2023/09/20 09:12:42;;;;;;;14.00;9.50;;;;;;;-142.91;100.00;56616.03;5030710;28;20277;-62
2023/09/20 09:15:10;;;;;;;10.45;9.50;;;;;;;-142.91;100.00;56616.03;5028679;28;20350;-60
2023/09/20 09:17:39;;;;;;;13.85;9.15;;;;;;;-142.91;100.00;56616.03;5036125;28;20262;-63
2023/09/20 09:20:09;;;;;;;10.55;8.95;;;;;;;-142.91;100.00;56616.03;5037359;28;20228;-63
2023/09/20 09:22:38;;;;;;;11.38;9.40;;;;;;;-142.91;100.00;56616.03;5032437;28;20207;-62
2023/09/20 09:25:10;;;;;;;12.73;9.95;;;;;;;-142.91;100.00;56616.03;5032118;28;20203;-63
2023/09/20 09:27:39;;;;;;;15.38;10.10;;;;;;;-142.91;100.00;56616.03;5029841;28;20792;-63
2023/09/20 09:30:08;;;;;;;11.85;9.10;;;;;;;-142.91;100.00;56616.03;5029618;28;20735;-63
2023/09/20 09:32:36;;;;;;;11.02;8.93;;;;;;;-142.91;100.00;56616.03;5027920;28;20214;-62
2023/09/20 09:35:05;;;;;;;13.02;8.00;;;;;;;-142.91;100.00;56616.03;5026714;28;20206;-62
2023/09/20 09:37:32;;;;;;;8.93;6.90;;;;;;;-142.91;100.00;56616.03;5027202;28;20214;-63
2023/09/20 09:40:01;;;;;;;10.43;6.72;;;;;;;-142.91;100.00;56616.03;5030347;28;20336;-61
2023/09/20 09:42:28;;;;;;;9.40;6.85;;;;;;;-142.91;100.00;56616.03;5029351;28;20262;-62
2023/09/20 09:44:55;;;;;;;6.45;5.95;;;;;;;-142.91;100.00;56616.03;5028590;28;20195;-62
2023/09/20 09:47:24;;;;;;;7.78;7.03;;;;;;;-142.91;100.00;56616.03;5035766;28;20208;-61
2023/09/20 09:49:53;;;;;;;6.03;5.53;;;;;;;-142.91;100.00;56616.03;5025917;28;20295;-64
2023/09/20 09:52:23;;;;;;;6.25;5.57;;;;;;;-142.91;100.00;56616.03;5028021;28;20282;-60
2023/09/20 09:54:51;;;;;;;5.88;5.38;;;;;;;-142.91;100.00;56616.03;5026203;28;20208;-62
2023/09/20 09:57:20;;;;;;;6.22;4.90;;;;;;;-142.91;100.00;56616.03;5034288;28;20206;-63
2023/09/20 09:59:47;;;;;;;6.07;5.60;;;;;;;-142.91;100.00;56616.03;5030900;28;20219;-62
2023/09/20 10:02:17;;;;;;;7.65;5.10;;;;;;;-142.91;100.00;56616.03;5027971;28;20250;-62
2023/09/20 10:04:50;;;;;;;5.80;4.95;;;;;;;-142.91;100.00;56616.03;5033791;28;20915;-62
2023/09/20 10:07:19;;;;;;;6.38;5.78;;;;;;;-142.91;100.00;56616.03;5032716;28;21739;-62
2023/09/20 10:09:50;;;;;;;5.82;5.07;;;;;;;-142.91;100.00;56616.03;5033477;28;20207;-62
2023/09/20 10:12:20;;;;;;;11.07;4.72;;;;;;;-142.91;100.00;56616.03;5028215;28;20207;-61
2023/09/20 10:14:47;;;;;;;6.47;4.85;;;;;;;-142.91;100.00;56616.03;5030643;28;20207;-62
2023/09/20 10:17:20;;;;;;;4.70;4.40;;;;;;;-142.91;100.00;56616.03;5032433;28;20203;-62
2023/09/20 10:19:49;;;;;;;7.47;4.60;;;;;;;-142.91;100.00;56616.03;5034695;28;20289;-62
2023/09/20 10:22:21;;;;;;;6.22;4.80;;;;;;;-142.91;100.00;56616.03;5030485;28;20265;-63
2023/09/20 10:24:54;;;;;;;4.60;4.22;;;;;;;-142.91;100.00;56616.03;5034793;28;20199;-60
2023/09/20 10:27:23;;;;;;;4.70;3.85;;;;;;;-142.91;100.00;56616.03;5032451;28;20243;-62
2023/09/20 10:30:10;;;;;;;4.15;3.75;;;;;;;-142.91;100.00;56616.03;5032184;28;20262;-62
2023/09/20 10:32:54;;;;;;;4.90;3.67;;;;;;;-142.91;100.00;56616.03;5029021;28;20211;-62
2023/09/20 10:35:22;;;;;;;5.25;3.42;;;;;;;-142.91;100.00;56616.03;5030467;28;20287;-63
2023/09/20 10:38:22;;;;;;;3.67;3.47;;;;;;;-142.91;100.00;56616.03;5033942;28;20582;-62
2023/09/20 10:41:03;;;;;;;3.13;2.90;;;;;;;-142.91;100.00;56616.03;5030138;28;20235;-62
2023/09/20 10:43:54;;;;;;;3.08;2.85;;;;;;;-142.91;100.00;56616.03;5027279;28;20683;-63
2023/09/20 10:46:23;;;;;;;4.20;2.60;;;;;;;-142.91;100.00;56616.03;5032245;28;20610;-62
2023/09/20 10:48:51;;;;;;;5.47;3.20;;;;;;;-142.91;100.00;56616.03;5030570;28;20287;-63
2023/09/20 10:51:49;;;;;;;4.75;3.78;;;;;;;-142.91;100.00;56616.03;5030647;28;20235;-63
2023/09/20 10:54:20;;;;;;;3.65;3.35;;;;;;;-142.91;100.00;56616.03;5032776;28;20692;-62
2023/09/20 10:57:02;;;;;;;5.50;4.00;;;;;;;-142.91;100.00;56616.03;5037665;28;20203;-62
2023/09/20 10:59:32;;;;;;;2.88;2.67;;;;;;;-142.91;100.00;56616.03;5031310;28;20228;-61
2023/09/20 11:02:05;;;;;;;4.10;2.70;;;;;;;-142.91;100.00;56616.03;5039884;28;20227;-61
2023/09/20 11:04:32;;;;;;;2.72;2.53;;;;;;;-142.91;100.00;56616.03;5032277;28;20687;-62
2023/09/20 11:07:02;;;;;;;3.60;3.35;;;;;;;-142.91;100.00;56616.03;5041361;28;20200;-62
2023/09/20 11:09:31;;;;;;;7.63;3.38;;;;;;;-142.91;100.00;56616.03;5030678;28;20702;-63
2023/09/20 11:12:04;;;;;;;3.40;3.00;;;;;;;-142.91;100.00;56616.03;5036201;28;20192;-60
2023/09/20 11:14:33;;;;;;;4.93;3.42;;;;;;;-142.91;100.00;56616.03;5032394;28;20267;-63
2023/09/20 11:17:01;;;;;;;4.03;3.72;;;;;;;-142.91;100.00;56616.03;5032137;28;20280;-61
2023/09/20 11:19:29;;;;;;;4.93;3.33;;;;;;;-142.91;100.00;56616.03;5031036;28;20206;-61
2023/09/20 11:21:57;;;;;;;5.20;3.47;;;;;;;-142.91;100.00;56616.03;5031786;28;20230;-59
2023/09/20 11:24:25;;;;;;;6.28;3.35;;;;;;;-142.91;100.00;56616.03;5038147;28;20223;-61
2023/09/20 11:26:54;;;;;;;7.75;3.80;;;;;;;-142.91;100.00;56616.03;5040323;28;20235;-63
2023/09/20 11:29:21;;;;;;;11.85;3.90;;;;;;;-142.91;100.00;56616.03;5033684;28;20199;-61
2023/09/20 11:31:50;;;;;;;3.80;3.17;;;;;;;-142.91;100.00;56616.03;5039406;28;20254;-60
2023/09/20 11:34:19;;;;;;;7.03;2.88;;;;;;;-142.91;100.00;56616.03;5035372;28;20206;-62
2023/09/20 11:36:48;;;;;;;7.97;3.78;;;;;;;-142.91;100.00;56616.03;5032630;28;20834;-63
2023/09/20 11:39:17;;;;;;;5.05;3.15;;;;;;;-142.91;100.00;56616.03;5029288;28;20261;-63
2023/09/20 11:41:45;;;;;;;5.63;2.95;;;;;;;-142.91;100.00;56616.03;5033601;28;20227;-63
2023/09/20 11:44:12;;;;;;;5.68;2.88;;;;;;;-142.91;100.00;56616.03;5033297;28;20203;-63
2023/09/20 11:46:39;;;;;;;3.90;3.20;;;;;;;-142.91;100.00;56616.03;5029247;28;20208;-62
2023/09/20 11:49:08;;;;;;;4.63;3.03;;;;;;;-142.91;100.00;56616.03;5032571;28;20858;-63
2023/09/20 11:51:36;;;;;;;6.20;3.28;;;;;;;-142.91;100.00;56616.03;5032138;28;20689;-63
2023/09/20 11:54:06;;;;;;;8.38;3.10;;;;;;;-142.91;100.00;56616.03;5028936;28;20681;-62
2023/09/20 11:56:35;;;;;;;7.80;3.78;;;;;;;-142.91;100.00;56616.03;5035373;28;20230;-62
2023/09/20 11:59:06;;;;;;;5.78;3.42;;;;;;;-142.91;100.00;56616.03;5033738;28;20211;-60
2023/09/20 12:01:34;;;;;;;6.38;3.45;;;;;;;-142.91;100.00;56616.03;5038734;28;20993;-63
2023/09/20 12:04:00;;;;;;;3.88;2.92;;;;;;;-142.91;100.00;56616.03;5036416;28;20584;-62
2023/09/20 12:06:28;;;;;;;6.43;2.97;;;;;;;-142.91;100.00;56616.03;5027931;28;20305;-64
2023/09/20 12:08:55;;;;;;;5.47;3.20;;;;;;;-142.91;100.00;56616.03;5032267;28;20207;-62